createdAt,value
2022-07-31T00:00:12.358Z,0.15
2022-07-31T00:02:38.706Z,0.10
2022-07-31T00:05:05.222Z,0.10
2022-07-31T00:07:31.560Z,0.00
2022-07-31T00:09:57.972Z,0.10
2022-07-31T00:12:24.423Z,0.00
2022-07-31T00:14:50.751Z,0.00
2022-07-31T00:17:17.069Z,0.10
2022-07-31T00:19:43.428Z,0.10
2022-07-31T00:22:10.681Z,0.10
2022-07-31T00:24:37.012Z,0.10
2022-07-31T00:27:04.855Z,0.10
2022-07-31T00:29:31.712Z,0.10
2022-07-31T00:31:58.136Z,0.17
2022-07-31T00:34:24.556Z,0.20
2022-07-31T00:36:50.998Z,0.10
2022-07-31T00:39:17.410Z,0.20
2022-07-31T00:41:45.817Z,0.28
2022-07-31T00:44:12.698Z,0.30
2022-07-31T00:46:40.324Z,0.25
2022-07-31T00:49:10.550Z,0.47
2022-07-31T00:51:38.004Z,0.45
2022-07-31T00:54:04.506Z,0.17
2022-07-31T00:56:30.927Z,0.10
2022-07-31T00:58:57.244Z,0.20
2022-07-31T01:01:23.864Z,0.20
2022-07-31T01:03:50.826Z,0.20
2022-07-31T01:06:17.207Z,0.20
2022-07-31T01:08:43.525Z,0.20
2022-07-31T01:11:17.302Z,0.17
2022-07-31T01:13:47.838Z,0.20
2022-07-31T01:16:14.571Z,0.20
2022-07-31T01:18:42.071Z,0.20
2022-07-31T01:21:09.754Z,0.32
2022-07-31T01:23:51.004Z,0.20
2022-07-31T01:26:31.924Z,0.20
2022-07-31T01:29:16.824Z,0.32
2022-07-31T01:31:49.624Z,0.10
2022-07-31T01:34:23.325Z,0.30
2022-07-31T01:36:55.403Z,0.30
2022-07-31T01:39:21.775Z,0.30
2022-07-31T01:41:49.696Z,0.30
2022-07-31T01:44:17.827Z,0.13
2022-07-31T01:46:45.103Z,0.20
2022-07-31T01:49:12.987Z,0.20
2022-07-31T01:51:40.048Z,0.30
2022-07-31T01:54:07.003Z,0.15
2022-07-31T01:56:34.604Z,0.10
2022-07-31T01:59:01.552Z,0.20
2022-07-31T02:01:29.199Z,0.20
2022-07-31T02:03:56.881Z,0.30
2022-07-31T02:06:27.226Z,0.10
2022-07-31T02:08:54.205Z,0.10
2022-07-31T02:11:21.537Z,0.10
2022-07-31T02:13:48.540Z,0.20
2022-07-31T02:16:16.300Z,0.20
2022-07-31T02:18:42.959Z,0.10
2022-07-31T02:21:09.474Z,0.20
2022-07-31T02:23:36.711Z,0.10
2022-07-31T02:26:07.288Z,0.10
2022-07-31T02:28:35.666Z,0.10
2022-07-31T02:31:02.695Z,0.10
2022-07-31T02:33:29.662Z,0.30
2022-07-31T02:35:56.620Z,0.30
2022-07-31T02:38:26.120Z,0.28
2022-07-31T02:40:54.205Z,0.20
2022-07-31T02:43:21.124Z,0.17
2022-07-31T02:45:47.854Z,0.20
2022-07-31T02:48:14.537Z,0.10
2022-07-31T02:50:41.073Z,0.10
2022-07-31T02:53:07.593Z,0.20
2022-07-31T02:55:34.685Z,0.10
2022-07-31T02:58:01.707Z,0.10
2022-07-31T03:00:28.121Z,0.20
2022-07-31T03:02:54.853Z,0.20
2022-07-31T03:05:21.572Z,0.30
2022-07-31T03:07:48.176Z,0.35
2022-07-31T03:10:14.583Z,0.22
2022-07-31T03:12:42.287Z,0.15
2022-07-31T03:15:11.457Z,0.10
2022-07-31T03:17:40.982Z,0.10
2022-07-31T03:20:08.657Z,0.10
2022-07-31T03:22:35.122Z,0.13
2022-07-31T03:25:02.733Z,0.10
2022-07-31T03:27:29.188Z,0.10
2022-07-31T03:29:55.691Z,0.10
2022-07-31T03:32:22.075Z,0.10
2022-07-31T03:34:48.492Z,0.10
2022-07-31T03:37:14.880Z,0.10
2022-07-31T03:39:41.464Z,0.10
2022-07-31T03:42:18.542Z,0.10
2022-07-31T03:44:45.782Z,0.10
2022-07-31T03:47:12.288Z,0.10
2022-07-31T03:49:39.024Z,0.10
2022-07-31T03:52:11.381Z,0.15
2022-07-31T03:54:38.362Z,0.30
2022-07-31T03:57:05.316Z,0.30
2022-07-31T03:59:37.863Z,0.40
2022-07-31T04:02:14.797Z,0.40
2022-07-31T04:04:44.574Z,0.30
2022-07-31T04:07:11.088Z,0.40
2022-07-31T04:09:38.671Z,0.50
2022-07-31T04:12:05.873Z,0.43
2022-07-31T04:14:32.521Z,0.30
2022-07-31T04:16:58.875Z,0.30
2022-07-31T04:19:25.281Z,0.25
2022-07-31T04:21:51.686Z,0.20
2022-07-31T04:24:18.395Z,0.28
2022-07-31T04:26:45.100Z,0.20
2022-07-31T04:29:11.473Z,0.20
2022-07-31T04:31:37.815Z,0.13
2022-07-31T04:34:04.229Z,0.30
2022-07-31T04:36:31.016Z,0.10
2022-07-31T04:38:58.121Z,0.20
2022-07-31T04:41:24.588Z,0.50
2022-07-31T04:43:50.950Z,0.60
2022-07-31T04:46:18.044Z,0.40
2022-07-31T04:48:44.989Z,0.40
2022-07-31T04:51:21.278Z,0.20
2022-07-31T04:53:48.196Z,0.30
2022-07-31T04:56:33.441Z,0.30
2022-07-31T04:59:11.784Z,0.50
2022-07-31T05:01:38.627Z,0.30
2022-07-31T05:04:05.254Z,0.30
2022-07-31T05:06:35.794Z,0.40
2022-07-31T05:09:08.151Z,0.70
2022-07-31T05:11:36.022Z,0.63
2022-07-31T05:14:03.326Z,0.50
2022-07-31T05:16:30.159Z,0.57
2022-07-31T05:18:57.236Z,0.47
2022-07-31T05:21:24.915Z,0.30
2022-07-31T05:23:51.314Z,0.30
2022-07-31T05:26:18.296Z,0.30
2022-07-31T05:28:46.674Z,0.30
2022-07-31T05:31:13.249Z,0.50
2022-07-31T05:33:39.612Z,0.50
2022-07-31T05:36:06.523Z,0.30
2022-07-31T05:38:32.898Z,0.40
2022-07-31T05:40:59.232Z,0.40
2022-07-31T05:43:25.830Z,0.20
2022-07-31T05:45:52.415Z,0.30
2022-07-31T05:48:18.793Z,0.47
2022-07-31T05:50:46.285Z,0.35
2022-07-31T05:53:15.001Z,0.50
2022-07-31T05:55:41.926Z,0.30
2022-07-31T05:58:08.462Z,0.30
2022-07-31T06:00:34.923Z,0.20
2022-07-31T06:03:01.743Z,0.28
2022-07-31T06:05:28.743Z,0.20
2022-07-31T06:07:55.573Z,0.20
2022-07-31T06:10:22.656Z,0.10
2022-07-31T06:12:49.225Z,0.10
2022-07-31T06:15:15.696Z,0.10
2022-07-31T06:17:44.456Z,0.00
2022-07-31T06:20:11.935Z,0.10
2022-07-31T06:22:43.700Z,0.10
2022-07-31T06:27:37.169Z,0.20
2022-07-31T06:30:06.017Z,0.10
2022-07-31T06:32:35.771Z,0.10
2022-07-31T06:35:02.373Z,0.20
2022-07-31T06:37:28.826Z,0.10
2022-07-31T06:39:56.640Z,0.10
2022-07-31T06:42:24.257Z,0.10
2022-07-31T06:44:50.978Z,0.10
2022-07-31T06:47:18.265Z,0.10
2022-07-31T06:49:44.971Z,0.10
2022-07-31T06:52:11.396Z,0.10
2022-07-31T06:54:37.817Z,0.40
2022-07-31T06:57:04.754Z,0.40
2022-07-31T06:59:40.600Z,0.50
2022-07-31T07:02:08.359Z,0.50
2022-07-31T07:05:06.166Z,0.55
2022-07-31T07:07:21.477Z,0.40
2022-07-31T07:09:47.921Z,0.57
2022-07-31T07:12:16.717Z,0.50
2022-07-31T07:14:43.666Z,0.50
2022-07-31T07:17:10.119Z,0.60
2022-07-31T07:19:39.543Z,0.77
2022-07-31T07:22:06.357Z,0.50
2022-07-31T07:24:32.942Z,0.50
2022-07-31T07:26:59.294Z,0.68
2022-07-31T07:29:25.796Z,0.40
2022-07-31T07:31:52.134Z,0.70
2022-07-31T07:34:18.512Z,0.60
2022-07-31T07:36:45.078Z,0.82
2022-07-31T07:39:11.421Z,0.80
2022-07-31T07:41:38.615Z,1.10
2022-07-31T07:44:06.279Z,1.10
2022-07-31T07:46:32.882Z,0.98
2022-07-31T07:48:59.378Z,1.20
2022-07-31T07:51:25.801Z,1.10
2022-07-31T07:53:52.332Z,0.90
2022-07-31T07:56:18.792Z,0.90
2022-07-31T07:58:45.432Z,0.80
2022-07-31T08:01:11.908Z,0.70
2022-07-31T08:03:49.434Z,0.80
2022-07-31T08:06:18.213Z,0.80
2022-07-31T08:08:44.533Z,0.60
2022-07-31T08:11:10.958Z,0.80
2022-07-31T08:13:49.325Z,0.57
2022-07-31T08:16:16.364Z,0.60
2022-07-31T08:18:42.740Z,0.50
2022-07-31T08:21:09.124Z,0.95
2022-07-31T08:23:35.521Z,0.82
2022-07-31T08:26:01.912Z,0.55
2022-07-31T08:28:28.361Z,0.40
2022-07-31T08:30:56.467Z,0.30
2022-07-31T08:33:22.808Z,0.20
2022-07-31T08:35:50.648Z,0.30
2022-07-31T08:38:20.433Z,0.20
2022-07-31T08:40:46.991Z,0.00
2022-07-31T08:44:00.259Z,0.10
2022-07-31T08:46:02.809Z,0.60
2022-07-31T08:48:31.068Z,0.30
2022-07-31T08:50:58.366Z,0.30
2022-07-31T08:53:25.240Z,1.08
2022-07-31T08:55:56.602Z,0.40
2022-07-31T08:58:24.593Z,1.23
2022-07-31T09:00:51.311Z,0.98
2022-07-31T09:03:18.052Z,0.77
2022-07-31T09:05:44.516Z,0.60
2022-07-31T09:08:12.398Z,0.40
2022-07-31T09:10:43.964Z,0.40
2022-07-31T09:13:15.311Z,0.50
2022-07-31T09:15:42.592Z,1.00
2022-07-31T09:18:22.030Z,1.05
2022-07-31T09:20:56.214Z,0.73
2022-07-31T09:23:22.931Z,0.50
2022-07-31T09:25:56.393Z,0.80
2022-07-31T09:28:33.820Z,0.50
2022-07-31T09:31:00.221Z,0.50
2022-07-31T09:33:28.064Z,0.50
2022-07-31T09:35:54.862Z,0.52
2022-07-31T09:38:21.304Z,0.60
2022-07-31T09:40:51.607Z,0.50
2022-07-31T09:43:31.724Z,1.00
2022-07-31T09:45:59.472Z,0.70
2022-07-31T09:48:26.811Z,0.63
2022-07-31T09:50:59.721Z,1.25
2022-07-31T09:53:26.444Z,1.23
2022-07-31T09:55:53.368Z,1.15
2022-07-31T09:58:20.054Z,1.60
2022-07-31T10:00:47.699Z,1.45
2022-07-31T10:03:14.395Z,1.33
2022-07-31T10:05:41.966Z,1.00
2022-07-31T10:08:08.544Z,0.80
2022-07-31T10:10:35.774Z,0.93
2022-07-31T10:13:05.745Z,1.27
2022-07-31T10:15:32.832Z,0.70
2022-07-31T10:17:59.660Z,0.70
2022-07-31T10:20:26.675Z,0.65
2022-07-31T10:22:54.489Z,0.73
2022-07-31T10:25:22.139Z,0.60
2022-07-31T10:27:48.861Z,0.80
2022-07-31T10:30:16.047Z,0.70
2022-07-31T10:32:43.257Z,0.93
2022-07-31T10:35:09.651Z,0.90
2022-07-31T10:37:42.998Z,0.65
2022-07-31T10:40:29.764Z,0.38
2022-07-31T10:43:03.201Z,0.68
2022-07-31T10:45:31.886Z,1.30
2022-07-31T10:47:59.296Z,1.00
2022-07-31T10:50:26.951Z,1.67
2022-07-31T10:52:56.169Z,1.10
2022-07-31T10:55:27.115Z,0.90
2022-07-31T10:57:56.108Z,0.60
2022-07-31T11:00:29.795Z,0.40
2022-07-31T11:02:56.638Z,0.30
2022-07-31T11:05:23.676Z,0.30
2022-07-31T11:08:07.907Z,0.30
2022-07-31T11:10:34.410Z,0.70
2022-07-31T11:13:05.000Z,0.47
2022-07-31T11:15:31.880Z,0.50
2022-07-31T11:18:21.158Z,0.40
2022-07-31T11:20:48.026Z,0.22
2022-07-31T11:23:15.603Z,0.22
2022-07-31T11:25:42.351Z,0.50
2022-07-31T11:28:13.406Z,0.90
2022-07-31T11:30:49.809Z,0.60
2022-07-31T11:33:16.488Z,0.70
2022-07-31T11:35:42.992Z,0.80
2022-07-31T11:38:09.522Z,0.43
2022-07-31T11:40:36.689Z,0.30
2022-07-31T11:45:54.987Z,0.28
2022-07-31T11:48:21.834Z,0.30
2022-07-31T11:50:49.658Z,0.40
2022-07-31T11:53:16.759Z,0.50
2022-07-31T11:55:49.330Z,1.02
2022-07-31T11:58:16.792Z,0.80
2022-07-31T12:00:47.057Z,0.60
2022-07-31T12:03:13.507Z,0.80
2022-07-31T12:05:43.868Z,0.80
2022-07-31T12:08:10.864Z,0.50
2022-07-31T12:10:38.394Z,0.50
2022-07-31T12:13:04.744Z,0.70
2022-07-31T12:15:31.233Z,0.50
2022-07-31T12:18:02.187Z,0.50
2022-07-31T12:20:36.002Z,0.50
2022-07-31T12:23:04.829Z,0.80
2022-07-31T12:25:41.845Z,0.40
2022-07-31T12:28:09.100Z,0.80
2022-07-31T12:30:35.596Z,0.90
2022-07-31T12:33:08.602Z,0.98
2022-07-31T12:35:55.592Z,0.80
2022-07-31T12:38:44.761Z,0.75
2022-07-31T12:41:13.696Z,0.60
2022-07-31T12:43:50.206Z,0.50
2022-07-31T12:46:19.605Z,0.52
2022-07-31T12:48:46.379Z,0.70
2022-07-31T12:51:13.148Z,0.60
2022-07-31T12:53:39.663Z,0.55
2022-07-31T12:56:10.533Z,0.55
2022-07-31T12:58:36.866Z,0.30
2022-07-31T13:01:03.351Z,0.30
2022-07-31T13:03:38.955Z,0.28
2022-07-31T13:06:12.726Z,0.40
2022-07-31T13:08:39.122Z,0.40
2022-07-31T13:11:05.485Z,0.40
2022-07-31T13:13:31.844Z,0.28
2022-07-31T13:15:58.161Z,0.50
2022-07-31T13:18:24.493Z,0.32
2022-07-31T13:20:50.945Z,0.38
2022-07-31T13:23:17.322Z,0.30
2022-07-31T13:25:43.667Z,0.30
2022-07-31T13:28:10.329Z,0.43
2022-07-31T13:30:36.714Z,0.30
2022-07-31T13:33:03.239Z,0.25
2022-07-31T13:35:29.618Z,0.30
2022-07-31T13:37:56.310Z,0.40
2022-07-31T13:40:41.092Z,0.20
2022-07-31T13:43:07.511Z,0.70
2022-07-31T13:45:33.875Z,0.80
2022-07-31T13:48:02.361Z,0.85
2022-07-31T13:50:30.705Z,0.60
2022-07-31T13:52:58.683Z,0.70
2022-07-31T13:55:25.477Z,1.10
2022-07-31T13:57:52.410Z,0.55
2022-07-31T14:00:21.686Z,0.50
2022-07-31T14:02:49.962Z,0.60
2022-07-31T14:05:16.512Z,0.40
2022-07-31T14:07:47.845Z,0.50
2022-07-31T14:10:20.642Z,0.50
2022-07-31T14:12:47.550Z,0.35
2022-07-31T14:15:13.942Z,0.40
2022-07-31T14:17:40.539Z,0.40
2022-07-31T14:20:07.168Z,0.50
2022-07-31T14:22:33.509Z,0.50
2022-07-31T14:24:59.874Z,0.30
2022-07-31T14:27:26.408Z,0.30
2022-07-31T14:29:52.809Z,0.30
2022-07-31T14:32:19.704Z,0.30
2022-07-31T14:34:46.067Z,0.40
2022-07-31T14:37:12.425Z,0.60
2022-07-31T14:39:42.571Z,1.50
2022-07-31T14:42:09.701Z,0.95
2022-07-31T14:44:36.867Z,1.08
2022-07-31T14:47:03.704Z,0.95
2022-07-31T14:50:06.098Z,1.00
2022-07-31T14:52:17.795Z,0.63
2022-07-31T14:54:44.129Z,0.60
2022-07-31T14:57:10.826Z,0.52
2022-07-31T14:59:37.309Z,0.40
2022-07-31T15:02:03.643Z,0.40
2022-07-31T15:04:29.961Z,0.50
2022-07-31T15:07:13.111Z,0.80
2022-07-31T15:09:42.769Z,0.60
2022-07-31T15:12:09.345Z,0.43
2022-07-31T15:14:35.683Z,0.30
2022-07-31T15:17:02.193Z,0.35
2022-07-31T15:19:28.762Z,0.30
2022-07-31T15:22:10.729Z,0.30
2022-07-31T15:24:48.388Z,0.20
2022-07-31T15:27:16.397Z,0.40
2022-07-31T15:30:05.160Z,0.30
2022-07-31T15:32:29.624Z,0.22
2022-07-31T15:34:56.031Z,0.30
2022-07-31T15:37:22.479Z,0.40
2022-07-31T15:40:02.146Z,0.30
2022-07-31T15:42:29.617Z,0.10
2022-07-31T15:44:55.946Z,0.20
2022-07-31T15:47:22.300Z,0.30
2022-07-31T15:49:48.835Z,0.22
2022-07-31T15:52:18.954Z,0.20
2022-07-31T15:54:46.444Z,0.10
2022-07-31T15:57:12.914Z,0.25
2022-07-31T15:59:39.701Z,0.40
2022-07-31T16:02:06.496Z,0.28
2022-07-31T16:04:33.044Z,0.20
2022-07-31T16:07:00.592Z,0.20
2022-07-31T16:10:04.018Z,0.20
2022-07-31T16:12:33.850Z,0.30
2022-07-31T16:15:00.267Z,0.30
2022-07-31T16:17:37.695Z,0.38
2022-07-31T16:20:08.716Z,0.22
2022-07-31T16:22:39.044Z,0.30
2022-07-31T16:25:05.974Z,0.30
2022-07-31T16:27:32.440Z,0.30
2022-07-31T16:30:01.393Z,0.20
2022-07-31T16:32:29.092Z,0.30
2022-07-31T16:35:00.264Z,0.20
2022-07-31T16:37:52.592Z,0.20
2022-07-31T16:40:28.056Z,0.17
2022-07-31T16:42:56.243Z,0.20
2022-07-31T16:45:22.776Z,0.20
2022-07-31T16:47:51.754Z,0.30
2022-07-31T16:50:18.644Z,0.60
2022-07-31T16:52:44.988Z,0.40
2022-07-31T16:55:11.325Z,0.20
2022-07-31T16:57:37.682Z,0.30
2022-07-31T17:00:06.258Z,0.40
2022-07-31T17:02:32.584Z,0.20
2022-07-31T17:04:58.902Z,0.30
2022-07-31T17:07:25.313Z,0.28
2022-07-31T17:09:51.756Z,0.40
2022-07-31T17:12:20.280Z,0.30
2022-07-31T17:14:47.649Z,0.20
2022-07-31T17:17:14.856Z,0.20
2022-07-31T17:19:46.708Z,0.22
2022-07-31T17:22:18.494Z,0.30
2022-07-31T17:24:50.207Z,0.20
2022-07-31T17:29:43.035Z,0.10
2022-07-31T17:32:11.374Z,0.10
2022-07-31T17:34:38.614Z,0.28
2022-07-31T17:37:05.336Z,0.20
2022-07-31T17:39:32.182Z,0.20
2022-07-31T17:41:58.895Z,0.30
2022-07-31T17:44:25.681Z,0.30
2022-07-31T17:46:52.198Z,0.20
2022-07-31T17:49:19.716Z,0.30
2022-07-31T17:51:59.137Z,0.40
2022-07-31T17:54:27.691Z,0.52
2022-07-31T17:56:54.322Z,0.30
2022-07-31T17:59:20.734Z,0.30
2022-07-31T18:01:51.661Z,0.20
2022-07-31T18:04:19.002Z,0.50
2022-07-31T18:06:45.391Z,0.28
2022-07-31T18:09:11.902Z,0.22
2022-07-31T18:11:38.229Z,0.20
2022-07-31T18:14:05.720Z,0.20
2022-07-31T18:16:32.175Z,0.10
2022-07-31T18:18:58.731Z,0.20
2022-07-31T18:21:25.071Z,0.20
2022-07-31T18:23:51.483Z,0.10
2022-07-31T18:26:17.839Z,0.22
2022-07-31T18:28:44.286Z,0.10
2022-07-31T18:31:24.163Z,0.10
2022-07-31T18:33:57.085Z,0.20
2022-07-31T18:36:23.516Z,0.20
2022-07-31T18:38:51.796Z,0.10
2022-07-31T18:41:18.142Z,0.10
2022-07-31T18:43:44.606Z,0.13
2022-07-31T18:46:10.936Z,0.10
2022-07-31T18:48:37.485Z,0.03
2022-07-31T18:51:05.545Z,0.20
2022-07-31T18:53:32.538Z,0.10
2022-07-31T18:55:58.891Z,0.10
2022-07-31T18:58:25.265Z,0.17
2022-07-31T19:00:55.046Z,0.20
2022-07-31T19:03:21.883Z,0.10
2022-07-31T19:05:50.070Z,0.20
2022-07-31T19:08:17.536Z,0.10
2022-07-31T19:10:43.937Z,0.20
2022-07-31T19:13:17.365Z,0.10
2022-07-31T19:15:46.444Z,0.10
2022-07-31T19:18:14.045Z,0.10
2022-07-31T19:20:58.935Z,0.00
2022-07-31T19:23:27.994Z,0.10
2022-07-31T19:26:03.492Z,0.08
2022-07-31T19:28:31.235Z,0.08
2022-07-31T19:30:58.028Z,0.08
2022-07-31T19:33:24.786Z,0.00
2022-07-31T19:35:55.378Z,0.20
2022-07-31T19:38:25.271Z,0.10
2022-07-31T19:40:51.662Z,0.10
2022-07-31T19:43:20.372Z,0.20
2022-07-31T19:46:00.412Z,0.40
2022-07-31T19:48:33.361Z,0.10
2022-07-31T19:50:59.686Z,0.10
2022-07-31T19:53:26.030Z,0.22
2022-07-31T19:55:52.396Z,0.10
2022-07-31T19:58:19.858Z,0.17
2022-07-31T20:00:46.788Z,0.10
2022-07-31T20:03:13.378Z,0.20
2022-07-31T20:05:39.818Z,0.30
2022-07-31T20:08:06.230Z,0.28
2022-07-31T20:10:32.659Z,0.25
2022-07-31T20:12:58.984Z,0.28
2022-07-31T20:15:25.321Z,0.20
2022-07-31T20:17:52.544Z,0.30
2022-07-31T20:20:18.903Z,0.20
2022-07-31T20:22:45.262Z,0.30
2022-07-31T20:25:20.045Z,0.25
2022-07-31T20:27:47.069Z,0.30
2022-07-31T20:30:13.553Z,0.20
2022-07-31T20:32:48.408Z,0.30
2022-07-31T20:35:37.876Z,0.20
2022-07-31T20:38:02.258Z,0.22
2022-07-31T20:40:28.996Z,0.20
2022-07-31T20:42:55.347Z,0.20
2022-07-31T20:45:21.956Z,0.30
2022-07-31T20:47:48.550Z,0.30
2022-07-31T20:50:14.969Z,0.20
2022-07-31T20:52:48.160Z,0.20
2022-07-31T20:55:15.028Z,0.20
2022-07-31T20:57:41.418Z,0.20
2022-07-31T21:00:08.709Z,0.20
2022-07-31T21:02:35.251Z,0.13
2022-07-31T21:05:02.273Z,0.20
2022-07-31T21:07:30.148Z,0.20
2022-07-31T21:09:56.971Z,0.22
2022-07-31T21:12:28.103Z,0.20
2022-07-31T21:14:55.859Z,0.30
2022-07-31T21:17:22.396Z,0.30
2022-07-31T21:19:48.792Z,0.30
2022-07-31T21:22:15.188Z,0.30
2022-07-31T21:24:41.800Z,0.30
2022-07-31T21:27:09.623Z,0.40
2022-07-31T21:29:36.061Z,0.32
2022-07-31T21:32:02.919Z,0.25
2022-07-31T21:34:29.632Z,0.30
2022-07-31T21:36:56.111Z,0.30
2022-07-31T21:39:26.723Z,0.20
2022-07-31T21:41:53.550Z,0.13
2022-07-31T21:44:20.002Z,0.20
2022-07-31T21:46:51.956Z,0.32
2022-07-31T21:49:20.252Z,0.28
2022-07-31T21:51:46.805Z,0.30
2022-07-31T21:54:15.414Z,0.35
2022-07-31T21:56:42.067Z,0.30
2022-07-31T21:59:08.413Z,0.20
2022-07-31T22:01:35.339Z,0.10
2022-07-31T22:04:01.746Z,0.20
2022-07-31T22:06:46.750Z,0.10
2022-07-31T22:09:13.099Z,0.10
2022-07-31T22:11:43.093Z,0.10
2022-07-31T22:14:27.893Z,0.10
2022-07-31T22:16:54.267Z,0.00
2022-07-31T22:19:21.178Z,0.22
2022-07-31T22:21:47.808Z,0.00
2022-07-31T22:24:14.254Z,0.10
2022-07-31T22:27:00.826Z,0.10
2022-07-31T22:29:27.523Z,0.10
2022-07-31T22:31:54.078Z,0.10
2022-07-31T22:34:37.053Z,0.10
2022-07-31T22:37:05.090Z,0.10
2022-07-31T22:39:32.100Z,0.05
2022-07-31T22:42:00.379Z,0.05
2022-07-31T22:44:27.028Z,0.05
2022-07-31T22:46:54.214Z,0.10
2022-07-31T22:49:21.066Z,0.08
2022-07-31T22:51:47.446Z,0.00
2022-07-31T22:54:13.951Z,0.20
2022-07-31T22:56:40.310Z,0.10
2022-07-31T22:59:08.799Z,0.05
2022-07-31T23:01:35.290Z,0.20
2022-07-31T23:04:01.640Z,0.20
2022-07-31T23:06:31.126Z,0.47
2022-07-31T23:08:59.186Z,0.13
2022-07-31T23:11:25.653Z,0.10
2022-07-31T23:13:52.024Z,0.10
2022-07-31T23:16:18.466Z,0.10
2022-07-31T23:18:44.845Z,0.20
2022-07-31T23:21:11.347Z,0.10
2022-07-31T23:23:38.284Z,0.10
2022-07-31T23:26:04.727Z,0.10
2022-07-31T23:28:31.088Z,0.10
2022-07-31T23:30:57.541Z,0.13
2022-07-31T23:33:23.878Z,0.10
2022-07-31T23:35:50.252Z,0.20
2022-07-31T23:38:16.714Z,0.10
2022-07-31T23:40:43.073Z,0.10
2022-07-31T23:43:09.450Z,0.10
2022-07-31T23:45:36.262Z,0.10
2022-07-31T23:48:05.634Z,0.10
2022-07-31T23:50:32.025Z,0.10
2022-07-31T23:52:58.520Z,0.00
2022-07-31T23:55:24.846Z,0.10
2022-07-31T23:57:51.244Z,0.10
